Bachu, China
Current Conditions -  °F | °C
As of 8:00 AM on Saturday 29 Nov 2014 (Local Time) from ZWSH Reporting Station
Clear Clear  
Wind Chill: 17°   Ceiling: Unl
Heat Index: 25°   Visibility: 5mi
Dew Point: 18°   Wind: 7mph
Humidity: 74%   Direction: 330°NNW
Pressure: 30.12"   Gusts: NA
Location:  39.8°N, 78.57°E
Report Text: ZWSH 290000Z 33003MPS 8000 NSC M04/M08 Q1020 NOSIG
Loading
Personal Weather Stations






























Interactive Weather Map New forecast layout! Learn more

10-Day Weather Forecast

Advertisements
Track Severe Weather on mobile